Time;durP1;ratioP1;P1;durP2;ratioP2;P2;SDS_P1;SDS_P2;PMS_P1;PMS_P2;Temp;Humidity;BMP_temperature;BMP_pressure;BME280_temperature;BME280_humidity;BME280_pressure;Samples;Min_cycle;Max_cycle;Signal;HPM_P1;HPM_P2
2023/02/08 00:00:50;;;;;;;15.52;14.35;;;;;;;-6.78;56.80;103067.16;452229;114;930651;-70
2023/02/08 00:01:53;;;;;;;15.29;14.14;;;;;;;-6.77;56.91;103060.91;457459;116;922999;-70
2023/02/08 00:02:56;;;;;;;16.55;15.25;;;;;;;-6.75;56.85;103054.66;457558;114;922625;-70
2023/02/08 00:03:59;;;;;;;17.65;16.31;;;;;;;-6.76;56.73;103055.58;458797;115;922622;-71
2023/02/08 00:05:02;;;;;;;17.45;16.09;;;;;;;-6.77;56.53;103056.48;458854;115;922474;-72
2023/02/08 00:06:06;;;;;;;15.44;14.28;;;;;;;-6.80;56.52;103053.06;458925;115;922548;-71
2023/02/08 00:07:09;;;;;;;16.33;15.21;;;;;;;-6.81;56.49;103057.49;458768;114;922434;-72
2023/02/08 00:08:12;;;;;;;15.89;14.59;;;;;;;-6.83;56.39;103053.13;455609;116;922487;-72
2023/02/08 00:09:15;;;;;;;16.21;14.91;;;;;;;-6.86;56.18;103050.58;455711;115;922583;-70
2023/02/08 00:10:18;;;;;;;15.90;14.60;;;;;;;-6.90;56.29;103049.80;457364;115;922704;-71
2023/02/08 00:11:21;;;;;;;15.89;14.72;;;;;;;-6.92;56.23;103051.62;457312;114;922467;-70
2023/02/08 00:12:23;;;;;;;16.81;15.46;;;;;;;-6.96;56.03;103049.09;456891;114;922563;-71
2023/02/08 00:13:26;;;;;;;16.94;15.64;;;;;;;-7.01;56.01;103051.88;455829;115;922990;-71
2023/02/08 00:14:29;;;;;;;16.31;15.11;;;;;;;-7.04;56.00;103053.73;455410;116;922613;-71
2023/02/08 00:15:32;;;;;;;16.19;14.89;;;;;;;-7.07;56.10;103054.70;455393;114;922935;-72
2023/02/08 00:16:35;;;;;;;16.62;15.33;;;;;;;-7.09;56.16;103059.16;455333;116;922539;-71
2023/02/08 00:17:38;;;;;;;16.71;15.44;;;;;;;-7.10;56.13;103067.14;453013;114;922817;-72
2023/02/08 00:18:42;;;;;;;16.44;15.13;;;;;;;-7.12;56.06;103058.38;456079;114;922793;-70
2023/02/08 00:19:45;;;;;;;16.11;14.78;;;;;;;-7.16;56.22;103049.63;457304;116;922512;-71
2023/02/08 00:20:48;;;;;;;16.69;15.49;;;;;;;-7.18;56.21;103052.34;457236;116;922677;-71
2023/02/08 00:21:51;;;;;;;17.69;16.33;;;;;;;-7.18;56.40;103051.47;461167;115;922571;-71
2023/02/08 00:22:54;;;;;;;15.97;14.68;;;;;;;-7.17;56.50;103050.56;458443;114;922801;-72
2023/02/08 00:23:57;;;;;;;15.94;14.76;;;;;;;-7.16;56.42;103050.50;455496;116;922460;-71
2023/02/08 00:25:00;;;;;;;15.44;14.24;;;;;;;-7.16;56.43;103042.55;455437;116;922536;-70
2023/02/08 00:26:03;;;;;;;17.87;16.50;;;;;;;-7.18;56.39;103052.34;455305;114;922514;-71
2023/02/08 00:27:06;;;;;;;16.81;15.43;;;;;;;-7.20;56.39;103054.15;455439;116;923040;-71
2023/02/08 00:28:11;;;;;;;15.38;14.19;;;;;;;-7.22;56.33;103045.36;456763;116;922549;-71
2023/02/08 00:29:15;;;;;;;18.67;17.32;;;;;;;-7.25;56.17;103048.10;457217;116;922685;-70
2023/02/08 00:30:18;;;;;;;17.06;15.72;;;;;;;-7.27;56.31;103056.98;460138;115;922853;-71
2023/02/08 00:31:21;;;;;;;17.82;16.35;;;;;;;-7.31;56.24;103053.56;464839;114;922683;-70
2023/02/08 00:32:25;;;;;;;16.17;14.92;;;;;;;-7.36;56.26;103055.47;463132;114;923362;-71
2023/02/08 00:33:28;;;;;;;16.03;14.86;;;;;;;-7.42;56.10;103058.27;457654;115;922475;-70
2023/02/08 00:34:31;;;;;;;18.03;16.64;;;;;;;-7.47;56.11;103060.17;460220;115;922540;-71
2023/02/08 00:35:34;;;;;;;15.96;14.81;;;;;;;-7.50;56.20;103057.61;460302;115;922500;-70
2023/02/08 00:36:37;;;;;;;17.63;16.19;;;;;;;-7.54;56.19;103055.92;460331;115;922814;-71
2023/02/08 00:37:40;;;;;;;17.78;16.26;;;;;;;-7.56;56.36;103056.89;457357;114;930497;-70
2023/02/08 00:38:44;;;;;;;16.97;15.61;;;;;;;-7.60;56.46;103054.30;456630;115;922570;-71
2023/02/08 00:39:47;;;;;;;16.83;15.43;;;;;;;-7.61;56.34;103051.72;460437;115;922950;-71
2023/02/08 00:40:50;;;;;;;16.44;15.31;;;;;;;-7.62;56.41;103047.32;460340;115;922557;-71
2023/02/08 00:41:53;;;;;;;16.63;15.41;;;;;;;-7.62;56.62;103049.97;460384;115;922510;-72
2023/02/08 00:42:56;;;;;;;17.54;16.24;;;;;;;-7.60;56.68;103051.66;455937;114;922469;-72
2023/02/08 00:43:59;;;;;;;17.11;15.76;;;;;;;-7.60;56.71;103050.78;456943;114;922602;-72
2023/02/08 00:45:03;;;;;;;16.32;14.91;;;;;;;-7.57;56.78;103056.02;463740;114;922595;-71
2023/02/08 00:46:08;;;;;;;16.23;14.98;;;;;;;-7.53;56.90;103060.32;466879;113;922673;-71
2023/02/08 00:47:11;;;;;;;16.60;15.35;;;;;;;-7.49;57.07;103055.80;464968;113;923494;-72
2023/02/08 00:48:14;;;;;;;17.49;16.29;;;;;;;-7.45;57.16;103061.02;455596;116;922996;-72
2023/02/08 00:49:19;;;;;;;16.42;15.14;;;;;;;-7.41;57.18;103067.97;457603;115;922658;-71
2023/02/08 00:50:22;;;;;;;15.22;14.02;;;;;;;-7.37;57.10;103063.45;460381;115;923095;-71
2023/02/08 00:51:25;;;;;;;17.75;16.55;;;;;;;-7.37;56.96;103064.31;460338;115;922499;-72
2023/02/08 00:52:28;;;;;;;15.09;13.80;;;;;;;-7.37;56.86;103056.37;458225;114;922628;-72
2023/02/08 00:53:36;;;;;;;15.54;14.39;;;;;;;-7.36;56.95;103055.47;452624;117;922570;-70
2023/02/08 00:54:41;;;;;;;16.13;14.89;;;;;;;-7.34;56.96;103058.95;451373;117;922525;-71
2023/02/08 00:55:47;;;;;;;16.06;14.94;;;;;;;-7.33;56.87;103055.38;448666;116;923168;-71
2023/02/08 00:56:50;;;;;;;16.47;15.18;;;;;;;-7.33;56.93;103060.67;447661;118;922530;-70
2023/02/08 00:57:54;;;;;;;17.85;16.47;;;;;;;-7.32;56.97;103059.77;447929;114;922572;-71
2023/02/08 00:58:57;;;;;;;15.69;14.45;;;;;;;-7.31;56.87;103064.16;446619;118;930506;-71
2023/02/08 01:00:00;;;;;;;16.17;14.98;;;;;;;-7.33;56.74;103063.32;457652;115;922496;-71
2023/02/08 01:01:05;;;;;;;16.34;14.94;;;;;;;-7.34;56.64;103060.73;460239;115;922552;-71
2023/02/08 01:02:08;;;;;;;16.00;14.89;;;;;;;-7.34;56.65;103063.39;460194;115;923100;-70
2023/02/08 01:03:11;;;;;;;16.31;15.11;;;;;;;-7.34;56.58;103068.69;455499;116;930679;-71
2023/02/08 01:04:14;;;;;;;15.37;14.25;;;;;;;-7.37;56.57;103066.09;455696;116;922927;-71
2023/02/08 01:05:17;;;;;;;16.62;15.31;;;;;;;-7.39;56.65;103071.45;459903;114;922841;-71
2023/02/08 01:06:20;;;;;;;16.90;15.69;;;;;;;-7.41;56.57;103078.56;463755;114;922703;-72
2023/02/08 01:07:23;;;;;;;16.66;15.33;;;;;;;-7.45;56.37;103068.96;460559;114;922819;-71
2023/02/08 01:08:26;;;;;;;15.50;14.40;;;;;;;-7.46;56.45;103074.29;446666;118;922807;-71
2023/02/08 01:09:30;;;;;;;15.56;14.16;;;;;;;-7.48;56.50;103071.67;446090;119;922627;-72
2023/02/08 01:10:34;;;;;;;15.74;14.66;;;;;;;-7.48;56.47;103082.27;447273;118;922944;-71
2023/02/08 01:11:37;;;;;;;15.49;14.29;;;;;;;-7.50;56.46;103078.81;447926;118;930341;-71
2023/02/08 01:12:41;;;;;;;16.32;15.01;;;;;;;-7.50;56.55;103083.23;447959;114;922676;-71
2023/02/08 01:13:44;;;;;;;15.86;14.67;;;;;;;-7.50;56.67;103085.88;446698;118;922479;-70
2023/02/08 01:14:47;;;;;;;15.89;14.69;;;;;;;-7.48;56.64;103081.39;454363;114;922406;-71
2023/02/08 01:15:51;;;;;;;17.29;15.95;;;;;;;-7.46;56.70;103092.84;460209;115;922749;-71
2023/02/08 01:16:54;;;;;;;14.96;13.86;;;;;;;-7.46;56.64;103090.19;460412;115;922550;-73
2023/02/08 01:17:58;;;;;;;15.31;14.21;;;;;;;-7.48;56.50;103086.70;450120;114;922593;-71
2023/02/08 01:19:02;;;;;;;16.24;14.95;;;;;;;-7.49;56.61;103091.12;446733;118;922837;-71
2023/02/08 01:20:06;;;;;;;15.76;14.41;;;;;;;-7.50;56.61;103099.12;449422;115;922542;-71
2023/02/08 01:21:16;;;;;;;15.92;14.51;;;;;;;-7.54;56.52;103095.66;460143;115;923163;-70
2023/02/08 01:22:19;;;;;;;17.37;16.07;;;;;;;-7.57;56.50;103095.75;459184;114;922585;-70
2023/02/08 01:23:22;;;;;;;16.83;15.59;;;;;;;-7.59;56.43;103093.13;455626;116;923525;-71
2023/02/08 01:24:25;;;;;;;16.68;15.39;;;;;;;-7.60;56.54;103090.52;455615;116;922926;-71
2023/02/08 01:25:28;;;;;;;16.48;15.04;;;;;;;-7.62;56.45;103095.00;453717;115;922569;-71
2023/02/08 01:26:31;;;;;;;16.29;14.94;;;;;;;-7.62;56.58;103095.00;450937;117;922507;-70
2023/02/08 01:27:35;;;;;;;17.17;15.55;;;;;;;-7.62;56.52;103100.30;450081;114;922586;-71
2023/02/08 01:28:39;;;;;;;15.92;14.73;;;;;;;-7.63;56.54;103099.42;451804;117;922906;-70
2023/02/08 01:29:41;;;;;;;16.35;15.06;;;;;;;-7.63;56.61;103094.13;452496;117;923636;-71
2023/02/08 01:30:45;;;;;;;17.62;16.17;;;;;;;-7.62;56.64;103101.17;451621;117;930364;-70
2023/02/08 01:31:48;;;;;;;16.83;15.48;;;;;;;-7.60;56.66;103109.05;450838;117;922632;-71
2023/02/08 01:32:51;;;;;;;15.63;14.43;;;;;;;-7.61;56.70;103096.75;454034;114;922517;-71
2023/02/08 01:33:55;;;;;;;16.08;14.82;;;;;;;-7.60;56.78;103106.41;455681;116;922468;-71
2023/02/08 01:34:58;;;;;;;14.22;13.12;;;;;;;-7.61;56.73;103102.05;457119;116;922471;-72
2023/02/08 01:36:01;;;;;;;16.93;15.56;;;;;;;-7.62;56.81;103100.30;456110;114;922627;-70
2023/02/08 01:37:04;;;;;;;15.67;14.52;;;;;;;-7.62;56.82;103105.59;457071;115;922715;-70
2023/02/08 01:38:08;;;;;;;15.85;14.69;;;;;;;-7.61;56.81;103107.34;449501;116;922818;-71
2023/02/08 01:39:11;;;;;;;17.44;16.24;;;;;;;-7.63;56.58;103109.14;448693;118;930348;-71
2023/02/08 01:40:15;;;;;;;17.81;16.51;;;;;;;-7.66;56.67;103118.02;448703;118;922496;-70
2023/02/08 01:41:21;;;;;;;15.76;14.58;;;;;;;-7.68;56.63;103113.69;453444;116;923146;-71
2023/02/08 01:42:25;;;;;;;17.70;16.18;;;;;;;-7.70;56.58;103113.71;454191;114;923028;-71
2023/02/08 01:43:34;;;;;;;17.15;15.78;;;;;;;-7.72;56.65;103115.52;454817;115;922475;-71
2023/02/08 01:45:22;;;;;;;15.81;14.64;;;;;;;-7.72;56.60;103110.22;457396;114;922493;-71
2023/02/08 01:46:25;;;;;;;15.45;14.31;;;;;;;-7.71;56.75;103119.03;454484;114;922930;-71
2023/02/08 01:47:29;;;;;;;16.34;15.14;;;;;;;-7.73;56.77;103116.45;455498;116;922553;-71
2023/02/08 01:48:38;;;;;;;16.02;14.85;;;;;;;-7.72;56.94;103118.16;448771;118;922461;-71
2023/02/08 01:49:41;;;;;;;15.96;14.83;;;;;;;-7.69;57.03;103114.59;448911;118;923048;-69
2023/02/08 01:50:48;;;;;;;16.67;15.54;;;;;;;-7.66;57.12;103117.14;448684;118;923299;-71
2023/02/08 01:52:04;;;;;;;16.11;14.86;;;;;;;-7.65;57.13;103121.55;456614;114;922517;-71
2023/02/08 01:53:07;;;;;;;15.49;14.34;;;;;;;-7.65;57.09;103116.25;449659;114;922533;-72
2023/02/08 01:54:13;;;;;;;15.94;14.63;;;;;;;-7.65;56.89;103119.77;448710;118;922531;-71
2023/02/08 01:55:29;;;;;;;16.36;14.96;;;;;;;-7.66;57.01;103118.02;448816;113;922482;-72
2023/02/08 01:56:36;;;;;;;15.66;14.49;;;;;;;-7.67;56.95;103121.61;453336;115;922635;-70
2023/02/08 01:57:40;;;;;;;15.37;14.14;;;;;;;-7.70;56.85;103123.43;454600;115;922611;-71
2023/02/08 01:58:46;;;;;;;15.99;14.74;;;;;;;-7.72;56.72;103115.52;448735;118;922532;-71
2023/02/08 01:59:53;;;;;;;15.61;14.53;;;;;;;-7.72;56.83;103122.62;448594;118;922922;-71
2023/02/08 02:00:57;;;;;;;15.38;14.13;;;;;;;-7.72;56.86;103122.62;448576;116;922755;-69
2023/02/08 02:02:03;;;;;;;16.44;15.13;;;;;;;-7.71;57.02;103116.39;456780;114;922612;-70
2023/02/08 02:03:07;;;;;;;16.07;14.83;;;;;;;-7.71;56.90;103122.55;449661;115;922508;-70
2023/02/08 02:04:10;;;;;;;15.76;14.56;;;;;;;-7.70;56.91;103131.37;448797;118;922551;-70
2023/02/08 02:05:16;;;;;;;15.69;14.49;;;;;;;-7.74;56.79;103130.59;448679;118;924591;-70
2023/02/08 02:06:23;;;;;;;16.28;14.98;;;;;;;-7.78;56.66;103131.58;447927;116;930479;-72
2023/02/08 02:07:28;;;;;;;15.36;14.16;;;;;;;-7.83;56.61;103128.16;455025;116;922473;-71
2023/02/08 02:08:31;;;;;;;15.24;14.08;;;;;;;-7.87;56.53;103131.77;448608;118;922573;-71
2023/02/08 02:09:41;;;;;;;16.17;14.94;;;;;;;-7.88;56.58;103129.17;448858;118;922472;-71
2023/02/08 02:10:47;;;;;;;15.82;14.64;;;;;;;-7.91;56.78;103135.39;448382;116;923309;-70
2023/02/08 02:11:53;;;;;;;15.67;14.39;;;;;;;-7.91;56.86;103129.23;448524;116;922841;-70
2023/02/08 02:12:59;;;;;;;15.19;14.02;;;;;;;-7.91;56.87;103135.39;448426;116;922869;-71
2023/02/08 02:14:03;;;;;;;16.64;15.27;;;;;;;-7.92;56.89;103133.64;457157;115;923011;-70
2023/02/08 02:15:09;;;;;;;15.86;14.57;;;;;;;-7.91;56.93;103129.23;457301;116;922895;-70
2023/02/08 02:16:15;;;;;;;15.79;14.59;;;;;;;-7.91;56.98;103130.10;457139;114;922985;-70
2023/02/08 02:17:19;;;;;;;15.71;14.53;;;;;;;-7.89;56.99;103127.42;455844;114;922402;-71
2023/02/08 02:18:26;;;;;;;16.84;15.60;;;;;;;-7.86;57.14;103135.28;448626;118;930343;-71
2023/02/08 02:19:49;;;;;;;16.38;15.11;;;;;;;-7.86;57.09;103133.52;448321;118;922582;-69
2023/02/08 02:20:55;;;;;;;16.06;14.78;;;;;;;-7.85;56.96;103135.26;448646;116;922568;-70
2023/02/08 02:22:20;;;;;;;15.83;14.62;;;;;;;-7.86;57.03;103137.94;447515;116;922567;-70
2023/02/08 02:23:58;;;;;;;16.39;15.13;;;;;;;-7.88;57.08;103145.91;449308;118;922580;-70
2023/02/08 02:25:24;;;;;;;16.52;15.22;;;;;;;-7.91;57.07;103138.05;449293;118;922587;-71
2023/02/08 02:26:45;;;;;;;15.18;14.05;;;;;;;-7.96;57.08;103136.41;449393;118;922859;-70
2023/02/08 02:28:10;;;;;;;16.73;15.43;;;;;;;-8.01;57.16;103137.39;450311;114;922585;-70
2023/02/08 02:29:25;;;;;;;16.33;15.02;;;;;;;-8.03;57.12;103140.95;448608;118;922638;-72
2023/02/08 02:31:03;;;;;;;16.59;15.31;;;;;;;-8.02;57.35;103140.93;448539;116;922631;-70
2023/02/08 02:32:13;;;;;;;16.41;15.07;;;;;;;-7.98;57.56;103140.85;448575;118;923083;-70
2023/02/08 02:33:29;;;;;;;16.13;14.84;;;;;;;-7.97;57.51;103153.19;449348;118;922735;-69
2023/02/08 02:35:08;;;;;;;15.72;14.47;;;;;;;-7.85;57.54;103151.15;493831;107;922481;-71
2023/02/08 02:36:33;;;;;;;16.24;14.99;;;;;;;-7.95;57.60;103146.97;477587;109;922559;-70
2023/02/08 02:37:56;;;;;;;16.71;15.41;;;;;;;-7.94;57.66;103148.72;474359;111;922631;-72
2023/02/08 02:39:23;;;;;;;15.14;13.69;;;;;;;-7.93;57.68;103162.80;473461;111;922928;-71
2023/02/08 02:40:33;;;;;;;16.39;15.08;;;;;;;-7.94;57.69;103153.14;473428;111;922503;-71
2023/02/08 02:44:48;;;;;;;16.90;15.37;;;;;;;-7.97;57.46;103161.13;474327;111;922492;-71
2023/02/08 02:45:57;;;;;;;18.33;16.83;;;;;;;-7.96;57.64;103160.23;474261;111;922620;-70
2023/02/08 02:47:09;;;;;;;18.28;16.63;;;;;;;-7.98;57.60;103164.67;474331;111;922409;-70
2023/02/08 02:48:31;;;;;;;18.77;17.28;;;;;;;-7.97;57.54;103169.07;474933;111;922460;-69
2023/02/08 02:49:40;;;;;;;16.92;15.56;;;;;;;-7.99;57.48;103173.55;475336;111;922540;-71
2023/02/08 02:50:50;;;;;;;17.06;15.72;;;;;;;-7.99;57.55;103165.61;475424;111;922492;-70
2023/02/08 02:52:17;;;;;;;17.85;16.52;;;;;;;-7.98;57.61;103168.20;475298;111;922467;-71
2023/02/08 02:53:30;;;;;;;18.26;16.77;;;;;;;-7.96;57.65;103174.34;471264;111;922528;-70
2023/02/08 02:54:40;;;;;;;17.10;15.81;;;;;;;-7.93;57.54;103170.73;474208;111;922561;-70
2023/02/08 02:55:49;;;;;;;24.76;22.86;;;;;;;-7.94;57.49;103169.90;464889;111;922518;-71
2023/02/08 02:57:05;;;;;;;19.35;17.87;;;;;;;-7.94;57.46;103174.32;465804;113;923336;-71
2023/02/08 02:58:11;;;;;;;16.29;14.92;;;;;;;-7.94;57.45;103175.19;475048;111;922914;-71
2023/02/08 02:59:15;;;;;;;16.66;15.26;;;;;;;-7.94;57.28;103169.90;475302;111;922690;-70
2023/02/08 03:00:22;;;;;;;16.34;15.09;;;;;;;-7.95;57.25;103169.92;475417;111;922563;-70
2023/02/08 03:01:25;;;;;;;16.87;15.47;;;;;;;-7.94;57.36;103176.97;475270;111;922463;-71
2023/02/08 03:02:28;;;;;;;16.77;15.21;;;;;;;-7.91;57.39;103177.76;475167;111;922785;-70
2023/02/08 03:03:33;;;;;;;16.01;14.81;;;;;;;-7.91;57.39;103177.76;475107;111;930468;-70
2023/02/08 03:04:43;;;;;;;17.04;15.66;;;;;;;-7.88;57.45;103185.63;474473;111;922843;-71
2023/02/08 03:05:46;;;;;;;18.19;16.74;;;;;;;-7.82;57.58;103179.32;474317;111;930523;-71
2023/02/08 03:06:59;;;;;;;18.49;17.07;;;;;;;-7.78;57.50;103183.66;474827;111;922602;-71
2023/02/08 03:08:18;;;;;;;18.24;16.78;;;;;;;-7.73;57.58;103184.43;475014;111;922578;-71
2023/02/08 03:09:27;;;;;;;17.96;16.59;;;;;;;-7.71;57.38;103180.83;447186;118;922752;-71
2023/02/08 03:10:52;;;;;;;17.42;16.04;;;;;;;-7.69;57.50;103180.80;472194;111;922644;-71
2023/02/08 03:11:58;;;;;;;18.54;16.97;;;;;;;-7.69;57.22;103180.80;474297;111;922432;-72
2023/02/08 03:13:14;;;;;;;18.47;16.88;;;;;;;-7.72;57.08;103179.08;474962;111;923308;-70
2023/02/08 03:14:26;;;;;;;17.51;15.96;;;;;;;-7.73;57.19;103184.43;472428;111;922524;-70
2023/02/08 03:16:08;;;;;;;17.39;16.04;;;;;;;-7.74;57.22;103188.85;471586;111;923070;-70
2023/02/08 03:17:20;;;;;;;16.79;15.39;;;;;;;-7.73;57.31;103190.60;471372;111;922467;-71
2023/02/08 03:18:44;;;;;;;17.72;16.30;;;;;;;-7.71;57.25;103193.20;465328;113;922404;-70
2023/02/08 03:19:51;;;;;;;17.17;15.82;;;;;;;-7.70;57.36;103194.94;475287;111;922969;-71
2023/02/08 03:21:01;;;;;;;17.66;16.07;;;;;;;-7.70;57.29;103194.94;474169;111;922637;-71
2023/02/08 03:22:24;;;;;;;18.98;17.52;;;;;;;-7.71;57.38;103199.36;475250;111;922492;-70
2023/02/08 03:23:30;;;;;;;16.60;15.16;;;;;;;-7.70;57.34;103205.53;466739;113;922580;-71
2023/02/08 03:24:46;;;;;;;17.63;16.30;;;;;;;-7.72;57.14;103210.02;472813;111;922885;-71
2023/02/08 03:26:02;;;;;;;16.97;15.54;;;;;;;-7.76;56.94;103198.59;474364;111;923485;-70
2023/02/08 03:27:21;;;;;;;16.34;15.11;;;;;;;-7.80;56.91;103198.70;474105;111;922597;-71
2023/02/08 03:28:40;;;;;;;16.24;14.84;;;;;;;-7.76;56.81;103205.67;477090;110;947113;-71
2023/02/08 03:29:49;;;;;;;16.31;14.96;;;;;;;-7.89;56.94;103206.86;463524;113;922756;-71
2023/02/08 03:30:59;;;;;;;17.74;16.33;;;;;;;-7.92;56.83;103206.91;459760;114;923275;-71
2023/02/08 03:32:05;;;;;;;17.84;16.19;;;;;;;-7.96;56.88;103210.53;455021;116;922499;-71
2023/02/08 03:33:12;;;;;;;16.38;15.04;;;;;;;-7.99;56.86;103206.16;456732;114;922905;-70
2023/02/08 03:34:21;;;;;;;15.33;14.16;;;;;;;-8.03;56.87;103205.36;456788;115;922590;-71
2023/02/08 03:35:34;;;;;;;17.04;15.63;;;;;;;-8.06;56.79;103210.73;452802;116;922544;-70
2023/02/08 03:37:05;;;;;;;15.27;14.07;;;;;;;-8.09;56.81;103205.48;450611;116;923435;-70
2023/02/08 03:38:14;;;;;;;16.38;15.15;;;;;;;-8.10;56.88;103209.03;456238;116;922772;-71
2023/02/08 03:39:21;;;;;;;15.48;14.26;;;;;;;-8.10;57.08;103209.03;457233;115;922547;-70
2023/02/08 03:40:33;;;;;;;16.44;15.21;;;;;;;-8.08;57.27;103211.66;457171;116;922631;-70
2023/02/08 03:41:40;;;;;;;16.69;15.29;;;;;;;-8.08;57.31;103201.06;455385;116;922996;-72
2023/02/08 03:42:45;;;;;;;16.54;15.23;;;;;;;-8.08;57.36;103206.36;456747;114;922954;-71
2023/02/08 03:43:52;;;;;;;15.79;14.43;;;;;;;-8.07;57.43;103214.28;457305;116;922858;-71
2023/02/08 03:45:14;;;;;;;16.42;14.93;;;;;;;-8.05;57.40;103224.84;455756;115;922476;-71
2023/02/08 03:46:35;;;;;;;17.13;15.75;;;;;;;-7.94;57.35;103220.20;472475;110;947204;-70
2023/02/08 03:47:41;;;;;;;16.18;15.00;;;;;;;-8.08;57.31;103223.12;460125;114;922904;-70
2023/02/08 03:48:47;;;;;;;15.92;14.61;;;;;;;-8.10;57.20;103230.20;455669;116;922544;-71
2023/02/08 03:49:54;;;;;;;16.32;15.05;;;;;;;-8.11;57.31;103232.91;455619;116;922979;-71
2023/02/08 03:51:00;;;;;;;16.21;14.96;;;;;;;-8.11;57.34;103238.20;455595;116;922839;-70
2023/02/08 03:52:06;;;;;;;16.53;15.26;;;;;;;-8.14;57.18;103232.95;455593;116;922524;-71
2023/02/08 03:53:10;;;;;;;16.11;14.90;;;;;;;-8.15;57.09;103239.14;455632;116;922579;-71
2023/02/08 03:54:19;;;;;;;15.22;14.06;;;;;;;-8.18;57.21;103240.09;455758;116;922568;-71
2023/02/08 03:55:29;;;;;;;17.06;15.72;;;;;;;-8.19;57.11;103229.53;455556;113;923080;-71
2023/02/08 03:56:45;;;;;;;16.07;14.71;;;;;;;-8.20;57.17;103246.30;455620;116;923290;-71
2023/02/08 03:58:10;;;;;;;15.33;14.12;;;;;;;-8.07;57.31;103247.81;481748;107;922775;-72
2023/02/08 03:59:23;;;;;;;16.18;14.72;;;;;;;-8.19;57.22;103253.34;466714;113;922414;-71
2023/02/08 04:00:27;;;;;;;15.66;14.41;;;;;;;-8.20;57.21;103243.66;466856;113;922497;-72
2023/02/08 04:01:35;;;;;;;16.46;15.12;;;;;;;-8.20;57.27;103256.89;458752;115;922626;-70
2023/02/08 04:02:44;;;;;;;17.38;15.99;;;;;;;-8.20;57.25;103255.11;459242;113;923205;-70
2023/02/08 04:03:52;;;;;;;16.38;15.16;;;;;;;-8.20;57.35;103257.77;451859;117;922638;-70
2023/02/08 04:04:56;;;;;;;15.11;14.00;;;;;;;-8.19;57.36;103258.64;452776;115;922623;-70
2023/02/08 04:06:00;;;;;;;16.52;15.21;;;;;;;-8.18;57.22;103260.39;463944;114;922883;-70
2023/02/08 04:07:03;;;;;;;15.74;14.44;;;;;;;-8.19;57.33;103262.16;464777;114;930456;-70
2023/02/08 04:08:06;;;;;;;16.59;15.34;;;;;;;-8.19;57.17;103258.64;459672;113;922523;-69
2023/02/08 04:09:09;;;;;;;16.26;15.01;;;;;;;-8.20;57.28;103260.41;458882;115;930474;-71
2023/02/08 04:10:13;;;;;;;16.95;15.63;;;;;;;-8.19;57.32;103269.22;458826;115;922832;-70
2023/02/08 04:11:16;;;;;;;14.77;13.62;;;;;;;-8.19;57.38;103264.80;464684;112;930481;-70
2023/02/08 04:12:19;;;;;;;16.74;15.37;;;;;;;-8.19;57.36;103270.09;464392;113;922712;-71
2023/02/08 04:13:22;;;;;;;15.89;14.63;;;;;;;-8.19;57.34;103267.45;458958;115;922680;-70
2023/02/08 04:14:25;;;;;;;17.28;15.76;;;;;;;-8.18;57.19;103269.20;458932;115;922658;-72
2023/02/08 04:15:28;;;;;;;16.07;14.63;;;;;;;-8.19;57.18;103267.45;461075;111;923015;-70
2023/02/08 04:16:31;;;;;;;14.97;13.81;;;;;;;-8.19;57.21;103272.74;465956;114;922573;-71
2023/02/08 04:17:34;;;;;;;16.89;15.26;;;;;;;-8.19;57.17;103282.45;463784;113;922903;-71
2023/02/08 04:18:37;;;;;;;15.66;14.57;;;;;;;-8.22;56.97;103272.82;458891;115;922482;-70
2023/02/08 04:19:40;;;;;;;16.96;15.43;;;;;;;-8.25;57.08;103280.80;458953;115;922954;-71
2023/02/08 04:20:43;;;;;;;18.01;16.58;;;;;;;-8.26;57.14;103281.69;459414;113;922865;-70
2023/02/08 04:21:46;;;;;;;16.52;15.21;;;;;;;-8.27;57.19;103279.94;465166;114;923207;-71
2023/02/08 04:22:49;;;;;;;16.01;14.74;;;;;;;-8.26;57.12;103279.05;461879;113;922807;-72
2023/02/08 04:23:52;;;;;;;17.41;16.02;;;;;;;-8.25;57.21;103280.80;459059;115;922525;-72
2023/02/08 04:24:55;;;;;;;16.19;14.98;;;;;;;-8.25;57.29;103283.44;466014;112;922562;-71
2023/02/08 04:25:58;;;;;;;16.17;14.91;;;;;;;-8.23;57.34;103280.78;464752;114;922544;-71
2023/02/08 04:27:01;;;;;;;16.16;14.94;;;;;;;-8.21;57.33;103289.54;460534;115;922927;-71
2023/02/08 04:28:06;;;;;;;16.11;14.90;;;;;;;-8.19;57.33;103282.45;463763;112;922739;-70
2023/02/08 04:29:09;;;;;;;15.12;13.86;;;;;;;-8.18;57.16;103284.20;467057;113;922816;-71
2023/02/08 04:30:13;;;;;;;16.92;15.57;;;;;;;-8.21;57.16;103282.48;466980;113;922607;-71
2023/02/08 04:31:16;;;;;;;15.94;14.69;;;;;;;-8.23;57.05;103284.30;467253;111;922468;-71
2023/02/08 04:32:19;;;;;;;16.34;15.04;;;;;;;-8.25;57.15;103288.73;467080;113;922482;-71
2023/02/08 04:33:22;;;;;;;16.19;14.99;;;;;;;-8.27;57.13;103282.59;458935;115;923098;-71
2023/02/08 04:34:26;;;;;;;15.99;14.79;;;;;;;-8.29;57.06;103288.83;458945;115;922552;-70
2023/02/08 04:35:29;;;;;;;15.85;14.69;;;;;;;-8.29;57.23;103291.47;464438;112;922430;-71
2023/02/08 04:36:32;;;;;;;16.04;14.78;;;;;;;-8.30;57.19;103285.34;467355;112;922869;-70
2023/02/08 04:37:35;;;;;;;16.02;14.85;;;;;;;-8.28;57.28;103285.28;464469;113;922707;-70
2023/02/08 04:38:38;;;;;;;16.56;15.28;;;;;;;-8.27;57.32;103289.69;458908;115;922349;-70
2023/02/08 04:39:41;;;;;;;16.26;14.90;;;;;;;-8.30;57.22;103280.05;458915;115;922521;-69
2023/02/08 04:40:44;;;;;;;16.37;15.08;;;;;;;-8.31;57.24;103298.59;467457;112;922637;-71
2023/02/08 04:41:47;;;;;;;17.29;16.01;;;;;;;-8.32;57.19;103300.36;466595;112;922539;-70
2023/02/08 04:42:50;;;;;;;16.06;14.81;;;;;;;-8.33;57.18;103293.34;466560;113;922578;-70
2023/02/08 04:43:53;;;;;;;16.05;14.88;;;;;;;-8.33;57.30;103288.05;467077;113;922524;-71
2023/02/08 04:44:56;;;;;;;15.37;14.22;;;;;;;-8.32;57.29;103299.52;467065;113;922429;-71
2023/02/08 04:45:59;;;;;;;17.05;15.55;;;;;;;-8.32;57.21;103303.00;467026;111;922591;-70
2023/02/08 04:47:02;;;;;;;16.98;15.69;;;;;;;-8.34;57.24;103299.53;466407;113;922465;-70
2023/02/08 04:48:06;;;;;;;16.80;15.35;;;;;;;-8.33;57.36;103298.64;460087;113;922385;-71
2023/02/08 04:49:09;;;;;;;16.77;15.46;;;;;;;-8.31;57.39;103299.47;457901;114;922929;-69
2023/02/08 04:50:13;;;;;;;16.30;15.02;;;;;;;-8.28;57.41;103290.58;463417;112;930508;-70
2023/02/08 04:51:16;;;;;;;17.48;16.10;;;;;;;-8.27;57.40;103294.98;471488;112;922565;-70
2023/02/08 04:52:20;;;;;;;15.31;14.24;;;;;;;-8.25;57.46;103299.32;469026;112;922545;-71
2023/02/08 04:53:23;;;;;;;16.06;14.86;;;;;;;-8.21;57.47;103297.48;458962;115;922543;-72
2023/02/08 04:54:26;;;;;;;16.66;15.34;;;;;;;-8.20;57.35;103297.46;458879;115;922512;-70
2023/02/08 04:55:30;;;;;;;16.13;14.83;;;;;;;-8.19;57.41;103293.92;462663;111;922556;-70
2023/02/08 04:56:33;;;;;;;16.34;15.04;;;;;;;-8.18;57.34;103300.96;466967;113;922479;-70
2023/02/08 04:57:36;;;;;;;15.81;14.61;;;;;;;-8.16;57.35;103298.30;466083;113;923067;-70
2023/02/08 04:58:39;;;;;;;17.04;15.78;;;;;;;-8.15;57.40;103298.24;467048;113;922873;-71
2023/02/08 04:59:42;;;;;;;16.21;14.89;;;;;;;-8.13;57.37;103292.93;467065;113;923034;-71
2023/02/08 05:00:45;;;;;;;16.21;14.89;;;;;;;-8.12;57.40;103298.20;467147;111;922615;-70
2023/02/08 05:01:48;;;;;;;17.56;16.01;;;;;;;-8.11;57.35;103302.60;467039;113;922472;-70
2023/02/08 05:02:56;;;;;;;17.64;16.16;;;;;;;-8.11;57.24;103307.89;466328;112;922506;-70
2023/02/08 05:03:59;;;;;;;16.80;15.48;;;;;;;-8.12;57.12;103299.97;465585;114;922590;-69
2023/02/08 05:05:03;;;;;;;18.07;16.56;;;;;;;-8.13;57.15;103309.69;465740;114;922784;-71